J Percy Priest Observed Data For Previous 48 Hours

Caption
Day and Hour Reservoir Elevation (behind dam)* Tailwater Elevation (below dam)* Average Hourly Discharge*
1/15/2019 1 AM CST 485.19 399.92 4,800
1/15/2019 2 AM CST 485.17 399.95 4,800
1/15/2019 3 AM CST 485.15 399.92 4,800
1/15/2019 4 AM CST 485.13 399.91 4,800
1/15/2019 5 AM CST 485.10 399.93 4,800
1/15/2019 6 AM CST 485.08 399.94 4,800
1/15/2019 7 AM CST 485.04 399.94 4,800
1/15/2019 8 AM CST 485.02 399.92 4,800
1/15/2019 9 AM CST 485.00 400.08 4,800
1/15/2019 10 AM CST 484.96 399.85 4,800
1/15/2019 11 AM CST 484.95 400.05 4,800
1/15/2019 12 PM CST 484.93 399.93 4,800
1/15/2019 1 PM CST 484.89 399.99 4,800
1/15/2019 2 PM CST 484.87 400.07 4,800
1/15/2019 3 PM CST 484.85 400.05 4,800
1/15/2019 4 PM CST 484.82 399.92 4,800
1/15/2019 5 PM CST 484.79 399.99 4,800
1/15/2019 6 PM CST 484.77 400.07 4,800
1/15/2019 7 PM CST 484.74 399.92 4,800
1/15/2019 8 PM CST 484.72 399.80 4,800
1/15/2019 9 PM CST 484.68 399.92 4,800
1/15/2019 10 PM CST 484.65 400.00 4,800
1/15/2019 11 PM CST 484.70 398.30 0
1/16/2019 12 AM CST 484.72 398.22 0
1/16/2019 1 AM CST 484.71 398.21 0
1/16/2019 2 AM CST 484.69 398.19 0
1/16/2019 3 AM CST 484.67 399.68 4,800
1/16/2019 4 AM CST 484.64 399.75 4,800
1/16/2019 5 AM CST 484.62 399.76 4,800
1/16/2019 6 AM CST 484.61 399.80 4,800
1/16/2019 7 AM CST 484.57 399.67 4,800
1/16/2019 8 AM CST 484.54 399.94 4,800
1/16/2019 9 AM CST 484.51 399.91 4,800
1/16/2019 10 AM CST 484.49 399.99 4,800
1/16/2019 11 AM CST 484.46 399.86 4,800
1/16/2019 12 PM CST 484.43 399.93 4,800
1/16/2019 1 PM CST 484.40 400.20 4,800
1/16/2019 2 PM CST 484.36 400.16 4,800
1/16/2019 3 PM CST 484.32 400.12 4,800
1/16/2019 4 PM CST 484.32 400.12 4,800
1/16/2019 5 PM CST 484.30 400.20 4,800
1/16/2019 6 PM CST 484.28 400.18 4,800
1/16/2019 7 PM CST 484.24 400.16 4,800
1/16/2019 8 PM CST 484.21 400.14 4,800
1/16/2019 9 PM CST 484.19 400.12 4,800
1/16/2019 10 PM CST 484.15 400.26 4,800
1/16/2019 11 PM CST 484.12 400.15 4,800
1/17/2019 12 AM CST 484.15 398.80 0
1/17/2019 1 AM CST 484.11 399.47 0
1/17/2019 2 AM CST 484.08 399.95 4,800
1/17/2019 3 AM CST 484.05 399.97 4,800
1/17/2019 4 AM CST 484.02 400.05 4,800
1/17/2019 5 AM CST 484.01 400.10 4,800
1/17/2019 6 AM CST 484.01 400.10 4,800
1/17/2019 7 AM CST 483.99 400.14 4,800
1/17/2019 8 AM CST 483.98 400.20 4,800
1/17/2019 9 AM CST 483.97 400.26 4,800
1/17/2019 10 AM CST 483.94 400.23 4,800
1/17/2019 11 AM CST 483.91 400.20 4,800
1/17/2019 12 PM CST 483.88 400.18 4,800
1/17/2019 1 PM CST 483.86 400.32 4,800
1/17/2019 2 PM CST 483.84 400.18 4,800
1/17/2019 3 PM CST 483.81 400.27 4,800
1/17/2019 4 PM CST 483.78 400.21 4,800
1/17/2019 5 PM CST 483.76 400.09 4,800
1/17/2019 6 PM CST 483.74 400.24 4,800
1/17/2019 7 PM CST 483.72 400.24 4,800
1/17/2019 8 PM CST 483.70 400.24 4,800
1/17/2019 9 PM CST 483.68 400.24 4,800
1/17/2019 10 PM CST 483.66 400.25 4,800

Elevations are in feet above sea level. Discharges are in cubic feet per second and are reported at the end of the hour.